createdAt,value
2018-09-15T00:00:35.297Z,1.70
2018-09-15T00:03:03.492Z,1.73
2018-09-15T00:05:31.702Z,1.97
2018-09-15T00:07:59.895Z,1.60
2018-09-15T00:10:28.117Z,2.00
2018-09-15T00:12:56.294Z,1.87
2018-09-15T00:15:24.501Z,2.97
2018-09-15T00:17:53.043Z,1.67
2018-09-15T00:20:21.363Z,1.60
2018-09-15T00:22:49.533Z,1.70
2018-09-15T00:25:18.009Z,4.27
2018-09-15T00:27:46.192Z,1.73
2018-09-15T00:30:14.384Z,2.47
2018-09-15T00:32:42.567Z,1.90
2018-09-15T00:35:10.844Z,2.00
2018-09-15T00:37:39.031Z,2.17
2018-09-15T00:40:07.206Z,1.77
2018-09-15T00:42:35.378Z,2.03
2018-09-15T00:45:03.553Z,2.07
2018-09-15T00:47:31.719Z,2.10
2018-09-15T00:49:59.958Z,2.63
2018-09-15T00:52:28.130Z,2.13
2018-09-15T00:54:56.320Z,2.20
2018-09-15T00:57:24.548Z,2.80
2018-09-15T00:59:52.732Z,2.23
2018-09-15T01:02:20.919Z,2.00
2018-09-15T01:04:49.107Z,2.30
2018-09-15T01:07:17.372Z,2.67
2018-09-15T01:09:45.557Z,2.57
2018-09-15T01:12:13.780Z,2.20
2018-09-15T01:14:41.930Z,2.03
2018-09-15T01:17:10.161Z,1.90
2018-09-15T01:19:38.343Z,2.40
2018-09-15T01:22:06.968Z,2.13
2018-09-15T01:24:35.161Z,2.20
2018-09-15T01:27:03.373Z,2.30
2018-09-15T01:29:31.548Z,2.50
2018-09-15T01:31:59.804Z,2.23
2018-09-15T01:34:27.967Z,2.37
2018-09-15T01:36:56.164Z,2.70
2018-09-15T01:39:30.913Z,3.00
2018-09-15T01:41:59.084Z,2.33
2018-09-15T01:44:27.288Z,2.63
2018-09-15T01:46:55.492Z,1.93
2018-09-15T01:49:23.879Z,2.37
2018-09-15T01:51:52.126Z,2.03
2018-09-15T01:54:20.313Z,2.30
2018-09-15T01:56:48.500Z,2.77
2018-09-15T01:59:16.790Z,2.50
2018-09-15T02:01:44.971Z,2.37
2018-09-15T02:04:13.171Z,1.70
2018-09-15T02:06:41.365Z,2.03
2018-09-15T02:09:11.720Z,2.00
2018-09-15T02:11:39.893Z,2.67
2018-09-15T02:14:08.120Z,1.80
2018-09-15T02:16:36.363Z,2.30
2018-09-15T02:19:04.532Z,1.80
2018-09-15T02:21:32.796Z,2.97
2018-09-15T02:24:00.981Z,2.60
2018-09-15T02:26:29.186Z,2.00
2018-09-15T02:28:57.418Z,2.37
2018-09-15T02:31:25.601Z,1.93
2018-09-15T02:33:53.783Z,2.23
2018-09-15T02:36:21.971Z,2.23
2018-09-15T02:38:50.231Z,2.70
2018-09-15T02:41:18.401Z,2.20
2018-09-15T02:43:47.055Z,2.00
2018-09-15T02:46:15.635Z,2.00
2018-09-15T02:48:44.028Z,4.50
2018-09-15T02:51:12.211Z,2.20
2018-09-15T02:53:40.696Z,2.70
2018-09-15T02:56:08.869Z,2.40
2018-09-15T02:58:37.092Z,3.63
2018-09-15T03:01:05.279Z,2.67
2018-09-15T03:03:33.470Z,3.50
2018-09-15T03:06:01.652Z,3.13
2018-09-15T03:08:29.824Z,3.57
2018-09-15T03:10:58.028Z,2.90
2018-09-15T03:13:26.202Z,2.20
2018-09-15T03:15:54.367Z,3.50
2018-09-15T03:18:22.575Z,2.90
2018-09-15T03:20:50.769Z,3.83
2018-09-15T03:23:18.957Z,3.10
2018-09-15T03:25:47.150Z,3.50
2018-09-15T03:28:15.361Z,3.20
2018-09-15T03:30:43.613Z,4.50
2018-09-15T03:33:11.794Z,2.90
2018-09-15T03:35:40.018Z,3.43
2018-09-15T03:38:08.224Z,3.30
2018-09-15T03:40:36.407Z,3.30
2018-09-15T03:43:04.611Z,2.57
2018-09-15T03:45:32.784Z,3.13
2018-09-15T03:48:01.003Z,3.37
2018-09-15T03:50:29.228Z,3.20
2018-09-15T03:52:57.402Z,3.00
2018-09-15T03:55:25.596Z,4.03
2018-09-15T03:57:53.784Z,3.40
2018-09-15T04:00:21.977Z,3.67
2018-09-15T04:02:50.165Z,3.23
2018-09-15T04:05:18.348Z,3.47
2018-09-15T04:07:46.524Z,2.97
2018-09-15T04:10:14.709Z,2.80
2018-09-15T04:12:42.915Z,4.30
2018-09-15T04:15:11.093Z,2.70
2018-09-15T04:17:39.279Z,3.73
2018-09-15T04:20:07.479Z,2.70
2018-09-15T04:22:35.666Z,3.27
2018-09-15T04:25:03.859Z,3.03
2018-09-15T04:27:32.085Z,3.67
2018-09-15T04:30:00.271Z,3.20
2018-09-15T04:32:28.428Z,2.50
2018-09-15T04:34:56.617Z,2.97
2018-09-15T04:37:24.878Z,2.80
2018-09-15T04:39:53.079Z,2.67
2018-09-15T04:42:21.259Z,3.40
2018-09-15T04:44:49.433Z,3.80
2018-09-15T04:47:17.631Z,3.10
2018-09-15T04:49:45.876Z,2.87
2018-09-15T04:52:14.053Z,3.40
2018-09-15T04:54:42.326Z,3.20
2018-09-15T04:57:10.511Z,3.30
2018-09-15T04:59:38.680Z,3.50
2018-09-15T05:02:06.863Z,2.80
2018-09-15T05:04:35.026Z,3.20
2018-09-15T05:07:03.219Z,2.93
2018-09-15T05:09:31.408Z,3.00
2018-09-15T05:11:59.630Z,2.20
2018-09-15T05:14:27.816Z,2.33
2018-09-15T05:16:55.978Z,3.13
2018-09-15T05:19:24.170Z,3.30
2018-09-15T05:21:52.575Z,2.67
2018-09-15T05:24:20.767Z,2.80
2018-09-15T05:26:48.946Z,3.20
2018-09-15T05:29:17.133Z,2.00
2018-09-15T05:31:45.321Z,2.93
2018-09-15T05:34:13.664Z,2.53
2018-09-15T05:36:41.899Z,4.70
2018-09-15T05:39:11.767Z,3.03
2018-09-15T05:41:40.079Z,2.60
2018-09-15T05:44:08.273Z,2.77
2018-09-15T05:46:36.703Z,2.93
2018-09-15T05:49:04.903Z,2.30
2018-09-15T05:51:33.335Z,3.07
2018-09-15T05:54:01.504Z,2.67
2018-09-15T05:56:29.927Z,2.63
2018-09-15T05:58:58.124Z,2.50
2018-09-15T06:01:26.312Z,3.07
2018-09-15T06:03:54.612Z,2.70
2018-09-15T06:06:22.882Z,2.47
2018-09-15T06:08:51.080Z,2.50
2018-09-15T06:11:19.317Z,2.23
2018-09-15T06:13:47.561Z,3.20
2018-09-15T06:16:15.725Z,2.43
2018-09-15T06:18:44.121Z,2.87
2018-09-15T06:21:12.289Z,2.30
2018-09-15T06:23:40.492Z,2.73
2018-09-15T06:26:10.099Z,3.00
2018-09-15T06:28:38.294Z,2.63
2018-09-15T06:31:06.612Z,2.33
2018-09-15T06:33:34.772Z,2.90
2018-09-15T06:36:02.991Z,2.70
2018-09-15T06:38:31.183Z,2.47
2018-09-15T06:40:59.370Z,2.60
2018-09-15T06:43:27.571Z,2.20
2018-09-15T06:45:55.766Z,2.23
2018-09-15T06:48:23.988Z,2.37
2018-09-15T06:50:52.168Z,2.30
2018-09-15T06:53:20.348Z,2.47
2018-09-15T06:55:48.840Z,2.77
2018-09-15T06:58:17.040Z,2.50
2018-09-15T07:00:45.207Z,4.03
2018-09-15T07:03:13.384Z,2.77
2018-09-15T07:05:41.571Z,3.00
2018-09-15T07:08:09.739Z,2.40
2018-09-15T07:10:37.926Z,3.20
2018-09-15T07:13:06.439Z,2.27
2018-09-15T07:15:34.595Z,3.33
2018-09-15T07:18:02.795Z,2.80
2018-09-15T07:20:31.015Z,2.90
2018-09-15T07:22:59.208Z,2.60
2018-09-15T07:25:27.429Z,2.60
2018-09-15T07:27:55.695Z,2.80
2018-09-15T07:30:23.912Z,1.90
2018-09-15T07:32:52.088Z,3.63
2018-09-15T07:35:20.290Z,2.30
2018-09-15T07:37:48.541Z,2.33
2018-09-15T07:40:16.681Z,2.53
2018-09-15T07:42:44.879Z,2.87
2018-09-15T07:45:13.096Z,2.07
2018-09-15T07:47:41.329Z,2.83
2018-09-15T07:50:09.508Z,2.60
2018-09-15T07:52:37.712Z,2.80
2018-09-15T07:55:05.898Z,2.40
2018-09-15T07:57:34.140Z,2.00
2018-09-15T08:00:02.433Z,2.30
2018-09-15T08:02:30.615Z,2.33
2018-09-15T08:04:58.799Z,2.43
2018-09-15T08:07:26.959Z,2.27
2018-09-15T08:09:55.196Z,2.07
2018-09-15T08:12:23.368Z,2.00
2018-09-15T08:14:51.544Z,2.53
2018-09-15T08:17:19.739Z,2.67
2018-09-15T08:19:47.913Z,2.37
2018-09-15T08:22:16.090Z,1.80
2018-09-15T08:24:44.282Z,2.10
2018-09-15T08:27:12.520Z,2.17
2018-09-15T08:29:40.719Z,2.53
2018-09-15T08:32:08.939Z,1.73
2018-09-15T08:34:37.095Z,2.53
2018-09-15T08:37:05.347Z,1.80
2018-09-15T08:39:33.512Z,2.03
2018-09-15T08:42:01.776Z,1.90
2018-09-15T08:44:29.975Z,1.87
2018-09-15T08:46:58.213Z,1.20
2018-09-15T08:49:26.410Z,1.50
2018-09-15T08:51:54.604Z,1.27
2018-09-15T08:54:22.828Z,1.90
2018-09-15T08:56:51.012Z,2.43
2018-09-15T08:59:19.181Z,1.40
2018-09-15T09:01:47.359Z,2.30
2018-09-15T09:04:15.574Z,1.53
2018-09-15T09:06:43.750Z,1.70
2018-09-15T09:09:12.972Z,1.43
2018-09-15T09:11:41.157Z,1.90
2018-09-15T09:14:09.356Z,2.13
2018-09-15T09:16:37.545Z,2.37
2018-09-15T09:19:05.745Z,2.23
2018-09-15T09:21:33.956Z,1.67
2018-09-15T09:24:02.145Z,1.40
2018-09-15T09:26:30.425Z,2.23
2018-09-15T09:28:58.528Z,1.80
2018-09-15T09:31:26.747Z,1.50
2018-09-15T09:33:54.924Z,1.53
2018-09-15T09:36:23.155Z,1.37
2018-09-15T09:38:51.330Z,1.50
2018-09-15T09:41:19.586Z,1.80
2018-09-15T09:43:47.733Z,1.57
2018-09-15T09:46:15.940Z,1.40
2018-09-15T09:48:44.228Z,2.10
2018-09-15T09:51:12.423Z,1.50
2018-09-15T09:53:40.597Z,2.40
2018-09-15T09:56:08.774Z,1.40
2018-09-15T09:58:36.948Z,1.57
2018-09-15T10:01:10.583Z,1.60
2018-09-15T10:03:38.767Z,1.77
2018-09-15T10:06:06.963Z,1.40
2018-09-15T10:11:09.692Z,1.57
2018-09-15T10:13:37.897Z,1.87
2018-09-15T10:16:06.082Z,1.57
2018-09-15T10:18:34.313Z,1.47
2018-09-15T10:21:02.471Z,1.50
2018-09-15T10:23:30.680Z,1.77
2018-09-15T10:25:58.871Z,1.50
2018-09-15T10:28:27.085Z,1.43
2018-09-15T10:30:55.280Z,2.33
2018-09-15T10:33:23.534Z,1.27
2018-09-15T10:35:51.703Z,1.37
2018-09-15T10:38:19.945Z,1.37
2018-09-15T10:40:48.110Z,1.77
2018-09-15T10:43:16.382Z,1.30
2018-09-15T10:45:44.639Z,1.70
2018-09-15T10:48:12.834Z,1.87
2018-09-15T10:50:41.066Z,2.27
2018-09-15T10:53:09.316Z,1.50
2018-09-15T10:55:37.495Z,1.93
2018-09-15T10:58:05.725Z,1.60
2018-09-15T11:00:33.916Z,1.50
2018-09-15T11:03:02.109Z,1.60
2018-09-15T11:05:30.381Z,1.60
2018-09-15T11:07:58.720Z,1.17
2018-09-15T11:10:26.936Z,1.37
2018-09-15T11:12:55.169Z,1.90
2018-09-15T11:15:23.469Z,1.80
2018-09-15T11:17:51.734Z,1.70
2018-09-15T11:20:19.927Z,1.50
2018-09-15T11:22:48.134Z,2.60
2018-09-15T11:25:16.300Z,1.80
2018-09-15T11:27:44.496Z,1.70
2018-09-15T11:30:12.705Z,1.20
2018-09-15T11:32:40.927Z,2.63
2018-09-15T11:35:09.119Z,1.27
2018-09-15T11:37:37.289Z,1.63
2018-09-15T11:40:05.496Z,1.80
2018-09-15T11:42:33.700Z,1.67
2018-09-15T11:45:01.880Z,1.67
2018-09-15T11:47:30.074Z,1.70
2018-09-15T11:49:58.248Z,1.40
2018-09-15T11:52:26.621Z,1.93
2018-09-15T11:54:54.820Z,2.30
2018-09-15T11:57:23.057Z,1.60
2018-09-15T11:59:51.273Z,1.50
2018-09-15T12:02:23.265Z,1.53
2018-09-15T12:04:51.461Z,1.90
2018-09-15T12:07:19.656Z,1.20
2018-09-15T12:09:47.860Z,1.90
2018-09-15T12:12:16.064Z,1.33
2018-09-15T12:14:44.337Z,1.80
2018-09-15T12:17:12.682Z,1.73
2018-09-15T12:19:44.437Z,2.60
2018-09-15T12:22:12.875Z,1.63
2018-09-15T12:24:41.130Z,2.10
2018-09-15T12:27:09.499Z,1.60
2018-09-15T12:29:38.139Z,1.70
2018-09-15T12:32:06.458Z,1.30
2018-09-15T12:34:34.714Z,1.97
2018-09-15T12:37:02.954Z,1.40
2018-09-15T12:39:31.291Z,1.40
2018-09-15T12:41:59.411Z,1.30
2018-09-15T12:44:27.839Z,0.87
2018-09-15T12:46:56.156Z,1.47
2018-09-15T12:49:24.437Z,1.37
2018-09-15T12:51:52.741Z,1.53
2018-09-15T12:54:20.889Z,1.30
2018-09-15T12:56:49.088Z,1.63
2018-09-15T12:59:17.274Z,1.40
2018-09-15T13:01:45.449Z,1.63
2018-09-15T13:04:13.657Z,1.53
2018-09-15T13:06:41.874Z,1.67
2018-09-15T13:09:11.916Z,1.57
2018-09-15T13:11:40.131Z,1.67
2018-09-15T13:14:08.768Z,1.33
2018-09-15T13:16:37.120Z,1.50
2018-09-15T13:19:05.320Z,1.00
2018-09-15T13:21:33.535Z,1.53
2018-09-15T13:24:01.722Z,1.60
2018-09-15T13:26:29.918Z,1.40
2018-09-15T13:28:58.111Z,1.40
2018-09-15T13:31:26.415Z,1.43
2018-09-15T13:33:54.729Z,1.23
2018-09-15T13:36:22.970Z,1.40
2018-09-15T13:38:51.169Z,2.20
2018-09-15T13:41:19.823Z,1.60
2018-09-15T13:43:48.056Z,1.50
2018-09-15T13:46:16.315Z,1.80
2018-09-15T13:48:44.575Z,2.80
2018-09-15T13:51:12.800Z,1.20
2018-09-15T13:53:40.964Z,1.20
2018-09-15T13:56:09.181Z,1.57
2018-09-15T13:58:37.468Z,2.00
2018-09-15T14:01:05.952Z,2.03
2018-09-15T14:03:34.140Z,1.60
2018-09-15T14:06:02.359Z,1.20
2018-09-15T14:08:30.676Z,1.50
2018-09-15T14:10:58.907Z,1.77
2018-09-15T14:13:27.048Z,1.40
2018-09-15T14:15:55.243Z,1.10
2018-09-15T14:18:23.459Z,1.50
2018-09-15T14:20:51.631Z,2.07
2018-09-15T14:23:19.811Z,1.70
2018-09-15T14:25:48.059Z,1.83
2018-09-15T14:28:16.467Z,2.00
2018-09-15T14:30:44.663Z,3.90
2018-09-15T14:33:12.913Z,1.77
2018-09-15T14:35:41.103Z,1.83
2018-09-15T14:38:09.336Z,1.13
2018-09-15T14:40:37.642Z,1.80
2018-09-15T14:43:05.872Z,1.43
2018-09-15T14:45:34.128Z,1.60
2018-09-15T14:48:02.471Z,1.60
2018-09-15T14:50:30.674Z,1.93
2018-09-15T14:52:58.918Z,1.90
2018-09-15T14:55:27.175Z,1.57
2018-09-15T14:57:55.400Z,1.80
2018-09-15T15:00:23.591Z,1.30
2018-09-15T15:02:54.340Z,2.30
2018-09-15T15:05:22.535Z,2.53
2018-09-15T15:07:51.298Z,1.80
2018-09-15T15:10:19.803Z,1.70
2018-09-15T15:12:48.348Z,3.20
2018-09-15T15:15:16.621Z,2.60
2018-09-15T15:17:44.837Z,1.80
2018-09-15T15:20:13.047Z,1.47
2018-09-15T15:22:41.286Z,1.80
2018-09-15T15:25:09.522Z,2.33
2018-09-15T15:27:37.784Z,1.90
2018-09-15T15:30:06.313Z,1.90
2018-09-15T15:32:34.570Z,2.17
2018-09-15T15:35:02.822Z,2.40
2018-09-15T15:37:31.274Z,1.63
2018-09-15T15:39:59.396Z,1.80
2018-09-15T15:42:27.594Z,2.50
2018-09-15T15:44:55.781Z,2.60
2018-09-15T15:47:24.885Z,1.90
2018-09-15T15:49:53.068Z,2.03
2018-09-15T15:52:21.813Z,2.10
2018-09-15T15:54:50.168Z,2.10
2018-09-15T15:57:18.403Z,1.47
2018-09-15T15:59:46.583Z,1.87
2018-09-15T16:02:14.759Z,2.70
2018-09-15T16:04:43.055Z,2.43
2018-09-15T16:07:12.060Z,1.87
2018-09-15T16:09:40.240Z,2.30
2018-09-15T16:12:08.440Z,1.80
2018-09-15T16:14:36.764Z,2.23
2018-09-15T16:17:05.008Z,1.97
2018-09-15T16:19:33.262Z,2.73
2018-09-15T16:22:01.476Z,1.70
2018-09-15T16:24:29.764Z,2.57
2018-09-15T16:26:58.042Z,2.70
2018-09-15T16:29:26.281Z,1.80
2018-09-15T16:31:54.544Z,2.20
2018-09-15T16:34:22.779Z,2.40
2018-09-15T16:36:50.984Z,2.87
2018-09-15T16:39:19.156Z,2.30
2018-09-15T16:41:48.185Z,2.30
2018-09-15T16:44:16.445Z,2.50
2018-09-15T16:46:44.627Z,2.27
2018-09-15T16:49:12.849Z,2.00
2018-09-15T16:51:41.068Z,2.47
2018-09-15T16:54:09.312Z,2.73
2018-09-15T16:56:37.906Z,3.70
2018-09-15T16:59:06.352Z,2.57
2018-09-15T17:01:34.611Z,3.47
2018-09-15T17:04:02.829Z,2.40
2018-09-15T17:06:31.028Z,2.60
2018-09-15T17:08:59.239Z,2.60
2018-09-15T17:11:27.508Z,1.90
2018-09-15T17:13:55.728Z,2.30
2018-09-15T17:16:24.077Z,2.50
2018-09-15T17:18:52.267Z,2.10
2018-09-15T17:21:20.507Z,2.10
2018-09-15T17:23:48.740Z,2.40
2018-09-15T17:26:17.147Z,2.07
2018-09-15T17:28:45.423Z,2.80
2018-09-15T17:31:13.748Z,2.60
2018-09-15T17:33:41.964Z,2.37
2018-09-15T17:36:10.312Z,2.17
2018-09-15T17:38:38.487Z,2.30
2018-09-15T17:41:06.734Z,1.73
2018-09-15T17:43:34.932Z,2.60
2018-09-15T17:46:03.327Z,1.73
2018-09-15T17:48:31.486Z,2.77
2018-09-15T17:50:59.673Z,2.30
2018-09-15T17:53:27.872Z,2.80
2018-09-15T17:55:56.143Z,1.87
2018-09-15T17:58:30.876Z,1.80
2018-09-15T18:00:59.053Z,3.47
2018-09-15T18:03:27.316Z,1.97
2018-09-15T18:05:55.476Z,2.20
2018-09-15T18:08:23.723Z,1.70
2018-09-15T18:10:52.026Z,2.70
2018-09-15T18:13:20.231Z,2.60
2018-09-15T18:15:48.444Z,2.20
2018-09-15T18:18:16.659Z,2.83
2018-09-15T18:20:44.827Z,3.27
2018-09-15T18:23:13.079Z,2.07
2018-09-15T18:25:41.304Z,3.10
2018-09-15T18:28:09.555Z,2.60
2018-09-15T18:30:37.725Z,3.00
2018-09-15T18:33:06.004Z,2.20
2018-09-15T18:35:34.384Z,2.30
2018-09-15T18:38:02.595Z,3.13
2018-09-15T18:40:30.785Z,2.20
2018-09-15T18:42:58.974Z,2.90
2018-09-15T18:45:27.143Z,2.10
2018-09-15T18:47:55.395Z,2.83
2018-09-15T18:50:23.589Z,2.83
2018-09-15T18:52:51.791Z,3.13
2018-09-15T18:55:20.041Z,3.20
2018-09-15T18:57:48.267Z,2.50
2018-09-15T19:00:16.515Z,2.80
2018-09-15T19:02:44.656Z,4.20
2018-09-15T19:05:12.883Z,2.63
2018-09-15T19:07:41.096Z,3.00
2018-09-15T19:10:09.325Z,2.77
2018-09-15T19:12:37.542Z,3.27
2018-09-15T19:15:05.749Z,2.90
2018-09-15T19:17:33.947Z,2.73
2018-09-15T19:20:02.127Z,2.80
2018-09-15T19:22:30.336Z,2.50
2018-09-15T19:24:58.520Z,2.93
2018-09-15T19:27:26.699Z,2.57
2018-09-15T19:29:55.008Z,3.30
2018-09-15T19:32:23.267Z,2.80
2018-09-15T19:34:51.492Z,3.97
2018-09-15T19:37:19.734Z,2.73
2018-09-15T19:39:48.012Z,3.10
2018-09-15T19:42:16.207Z,2.80
2018-09-15T19:44:44.515Z,3.47
2018-09-15T19:47:12.755Z,3.47
2018-09-15T19:49:41.040Z,3.40
2018-09-15T19:52:09.282Z,3.60
2018-09-15T19:54:37.560Z,3.23
2018-09-15T19:57:05.872Z,2.80
2018-09-15T19:59:34.067Z,3.07
2018-09-15T20:02:02.333Z,2.53
2018-09-15T20:04:30.551Z,4.27
2018-09-15T20:06:58.839Z,3.60
2018-09-15T20:09:27.049Z,3.27
2018-09-15T20:11:55.247Z,3.20
2018-09-15T20:14:23.472Z,3.10
2018-09-15T20:16:50.704Z,5.00
2018-09-15T20:19:17.912Z,3.23
2018-09-15T20:21:45.124Z,4.13
2018-09-15T20:24:13.324Z,3.90
2018-09-15T20:26:41.652Z,3.57
2018-09-15T20:29:09.844Z,3.23
2018-09-15T20:31:38.071Z,4.20
2018-09-15T20:34:06.389Z,4.40
2018-09-15T20:36:34.590Z,4.07
2018-09-15T20:39:02.763Z,3.67
2018-09-15T20:41:31.076Z,3.80
2018-09-15T20:43:59.292Z,3.40
2018-09-15T20:46:27.505Z,3.80
2018-09-15T20:48:58.721Z,4.40
2018-09-15T20:51:26.908Z,4.10
2018-09-15T20:53:55.102Z,3.83
2018-09-15T20:56:23.346Z,3.37
2018-09-15T20:58:51.573Z,5.27
2018-09-15T21:01:19.800Z,4.40
2018-09-15T21:03:48.043Z,3.67
2018-09-15T21:06:16.281Z,3.63
2018-09-15T21:08:44.488Z,4.30
2018-09-15T21:11:12.686Z,3.60
2018-09-15T21:13:40.850Z,5.00
2018-09-15T21:16:09.056Z,3.77
2018-09-15T21:18:37.239Z,3.37
2018-09-15T21:21:05.647Z,3.70
2018-09-15T21:23:33.856Z,3.90
2018-09-15T21:26:02.036Z,3.90
2018-09-15T21:28:30.251Z,3.60
2018-09-15T21:30:58.434Z,4.13
2018-09-15T21:33:26.635Z,4.30
2018-09-15T21:35:54.823Z,3.80
2018-09-15T21:38:23.041Z,3.83
2018-09-15T21:40:51.282Z,3.87
2018-09-15T21:43:19.488Z,3.90
2018-09-15T21:45:47.713Z,4.10
2018-09-15T21:48:15.885Z,3.40
2018-09-15T21:50:44.107Z,3.47
2018-09-15T21:53:12.302Z,4.00
2018-09-15T21:55:40.517Z,4.70
2018-09-15T21:58:08.729Z,3.90
2018-09-15T22:00:36.997Z,5.17
2018-09-15T22:03:05.239Z,3.93
2018-09-15T22:05:33.436Z,3.90
2018-09-15T22:08:01.642Z,4.07
2018-09-15T22:10:29.829Z,4.10
2018-09-15T22:12:58.016Z,5.70
2018-09-15T22:15:27.232Z,3.20
2018-09-15T22:17:57.041Z,3.60
2018-09-15T22:20:25.255Z,4.33
2018-09-15T22:22:53.480Z,5.20
2018-09-15T22:25:21.696Z,4.30
2018-09-15T22:27:49.968Z,3.60
2018-09-15T22:30:18.322Z,3.77
2018-09-15T22:32:46.528Z,4.03
2018-09-15T22:35:14.813Z,3.80
2018-09-15T22:37:43.000Z,4.50
2018-09-15T22:40:11.456Z,4.00
2018-09-15T22:42:39.785Z,4.77
2018-09-15T22:45:07.995Z,4.10
2018-09-15T22:47:36.187Z,4.50
2018-09-15T22:50:04.704Z,3.90
2018-09-15T22:52:32.916Z,5.27
2018-09-15T22:55:01.120Z,5.40
2018-09-15T22:57:29.346Z,3.60
2018-09-15T22:59:57.543Z,4.57
2018-09-15T23:02:25.704Z,4.80
2018-09-15T23:05:00.347Z,4.30
2018-09-15T23:07:28.608Z,5.10
2018-09-15T23:09:56.872Z,4.33
2018-09-15T23:12:25.093Z,4.70
2018-09-15T23:14:53.322Z,5.13
2018-09-15T23:17:21.528Z,5.10
2018-09-15T23:19:49.724Z,4.90
2018-09-15T23:22:17.941Z,4.70
2018-09-15T23:24:46.152Z,5.03
2018-09-15T23:27:14.357Z,5.60
2018-09-15T23:29:42.580Z,5.30
2018-09-15T23:32:10.759Z,4.93
2018-09-15T23:34:38.948Z,5.33
2018-09-15T23:37:07.135Z,6.63
2018-09-15T23:39:35.312Z,6.60
2018-09-15T23:42:03.501Z,6.50
2018-09-15T23:44:31.783Z,5.83
2018-09-15T23:46:59.991Z,6.60
2018-09-15T23:49:28.165Z,5.70
2018-09-15T23:51:56.343Z,6.60
2018-09-15T23:54:24.569Z,6.07
2018-09-15T23:56:52.747Z,7.20
2018-09-15T23:59:20.968Z,6.60
